createdAt,value
2022-10-22T00:00:07.322Z,95284
2022-10-22T00:01:16.011Z,95284
2022-10-22T00:02:25.688Z,95285
2022-10-22T00:03:33.354Z,95288
2022-10-22T00:04:42.121Z,95290
2022-10-22T00:05:51.691Z,95285
2022-10-22T00:07:00.359Z,95277
2022-10-22T00:08:09.406Z,95279
2022-10-22T00:09:18.158Z,95277
2022-10-22T00:10:27.774Z,95278
2022-10-22T00:11:37.448Z,95281
2022-10-22T00:12:45.130Z,95283
2022-10-22T00:13:53.937Z,95289
2022-10-22T00:15:03.618Z,95292
2022-10-22T00:16:11.272Z,95291
2022-10-22T00:17:20.963Z,95291
2022-10-22T00:18:30.608Z,95295
2022-10-22T00:19:40.306Z,95294
2022-10-22T00:20:49.971Z,95291
2022-10-22T00:21:57.655Z,95289
2022-10-22T00:23:07.333Z,95288
2022-10-22T00:24:17.014Z,95286
2022-10-22T00:25:25.836Z,95283
2022-10-22T00:26:35.542Z,95283
2022-10-22T00:27:44.249Z,95288
2022-10-22T00:28:53.938Z,95288
2022-10-22T00:30:03.621Z,95284
2022-10-22T00:31:13.308Z,95286
2022-10-22T00:32:22.970Z,95292
2022-10-22T00:33:32.687Z,95291
2022-10-22T00:34:41.353Z,95291
2022-10-22T00:35:51.013Z,95288
2022-10-22T00:37:00.695Z,95294
2022-10-22T00:38:10.374Z,95299
2022-10-22T00:39:20.086Z,95309
2022-10-22T00:40:28.796Z,95313
2022-10-22T00:41:37.457Z,95323
2022-10-22T00:42:47.146Z,95327
2022-10-22T00:43:54.813Z,95323
2022-10-22T00:45:03.484Z,95335
2022-10-22T00:46:12.199Z,95338
2022-10-22T00:47:20.868Z,95338
2022-10-22T00:48:30.579Z,95346
2022-10-22T00:49:38.303Z,95346
2022-10-22T00:50:46.930Z,95359
2022-10-22T00:51:56.595Z,95365
2022-10-22T00:53:05.268Z,95367
2022-10-22T00:54:13.998Z,95367
2022-10-22T00:55:23.677Z,95362
2022-10-22T00:56:32.397Z,95368
2022-10-22T00:57:42.069Z,95353
2022-10-22T00:58:49.734Z,95359
2022-10-22T00:59:59.441Z,95358
2022-10-22T01:01:09.253Z,95356
2022-10-22T01:02:17.774Z,95350
2022-10-22T01:03:26.457Z,95352
2022-10-22T01:04:36.115Z,95350
2022-10-22T01:05:44.837Z,95347
2022-10-22T01:06:54.484Z,95348
2022-10-22T01:08:04.207Z,95360
2022-10-22T01:09:12.854Z,95356
2022-10-22T01:10:22.524Z,95358
2022-10-22T01:11:32.219Z,95351
2022-10-22T01:12:41.134Z,95350
2022-10-22T01:13:50.555Z,95352
2022-10-22T01:15:00.244Z,95346
2022-10-22T01:16:09.911Z,95350
2022-10-22T01:18:29.505Z,95350
2022-10-22T01:19:39.255Z,95341
2022-10-22T01:20:48.011Z,95344
2022-10-22T01:21:57.768Z,95343
2022-10-22T01:28:06.056Z,95325
2022-10-22T01:29:15.799Z,95334
2022-10-22T01:30:24.484Z,95332
2022-10-22T01:31:32.186Z,95332
2022-10-22T01:32:41.901Z,95334
2022-10-22T01:33:49.636Z,95326
2022-10-22T01:34:59.367Z,95321
2022-10-22T01:36:09.257Z,95328
2022-10-22T01:37:16.964Z,95322
2022-10-22T01:38:25.732Z,95323
2022-10-22T01:39:35.439Z,95323
2022-10-22T01:40:45.180Z,95330
2022-10-22T01:41:54.913Z,95334
2022-10-22T01:43:04.655Z,95341
2022-10-22T01:44:13.341Z,95338
2022-10-22T01:45:22.063Z,95339
2022-10-22T01:46:31.793Z,95343
2022-10-22T01:47:39.802Z,95342
2022-10-22T01:48:47.165Z,95345
2022-10-22T01:49:56.909Z,95347
2022-10-22T01:51:04.595Z,95346
2022-10-22T01:52:13.306Z,95346
2022-10-22T01:53:22.962Z,95345
2022-10-22T01:54:31.670Z,95348
2022-10-22T01:55:40.464Z,95341
2022-10-22T01:56:47.231Z,95342
2022-10-22T01:57:56.922Z,95344
2022-10-22T01:59:04.624Z,95346
2022-10-22T02:00:12.317Z,95350
2022-10-22T02:01:21.024Z,95346
2022-10-22T02:02:28.714Z,95345
2022-10-22T02:03:37.409Z,95348
2022-10-22T02:04:46.297Z,95350
2022-10-22T02:05:55.830Z,95357
2022-10-22T02:07:05.554Z,95356
2022-10-22T02:08:14.270Z,95357
2022-10-22T02:09:21.911Z,95363
2022-10-22T02:10:31.721Z,95359
2022-10-22T02:11:40.391Z,95365
2022-10-22T02:12:48.084Z,95367
2022-10-22T02:13:56.742Z,95367
2022-10-22T02:15:04.469Z,95370
2022-10-22T02:16:13.079Z,95368
2022-10-22T02:17:19.731Z,95369
2022-10-22T02:18:28.446Z,95369
2022-10-22T02:19:39.178Z,95371
2022-10-22T02:20:47.888Z,95370
2022-10-22T02:21:57.585Z,95376
2022-10-22T02:23:06.230Z,95376
2022-10-22T02:24:15.947Z,95379
2022-10-22T02:25:24.583Z,95380
2022-10-22T02:26:32.262Z,95386
2022-10-22T02:27:40.941Z,95390
2022-10-22T02:28:49.691Z,95390
2022-10-22T02:29:59.394Z,95394
2022-10-22T02:31:08.073Z,95399
2022-10-22T02:32:17.777Z,95405
2022-10-22T02:33:26.595Z,95403
2022-10-22T02:34:35.288Z,95409
2022-10-22T02:35:43.999Z,95410
2022-10-22T02:36:52.802Z,95411
2022-10-22T02:38:00.499Z,95413
2022-10-22T02:39:10.287Z,95416
2022-10-22T02:40:20.112Z,95409
2022-10-22T02:41:29.804Z,95415
2022-10-22T02:42:39.724Z,95416
2022-10-22T02:43:47.188Z,95414
2022-10-22T02:44:54.839Z,95423
2022-10-22T02:46:02.497Z,95425
2022-10-22T02:47:11.209Z,95429
2022-10-22T02:49:28.635Z,95434
2022-10-22T02:50:38.417Z,95427
2022-10-22T02:51:48.134Z,95436
2022-10-22T02:52:55.838Z,95436
2022-10-22T02:54:03.493Z,95436
2022-10-22T02:55:12.181Z,95440
2022-10-22T02:56:21.950Z,95439
2022-10-22T02:57:29.541Z,95440
2022-10-22T02:58:38.374Z,95440
2022-10-22T02:59:46.097Z,95437
2022-10-22T03:00:53.825Z,95431
2022-10-22T03:02:03.500Z,95431
2022-10-22T03:03:13.181Z,95422
2022-10-22T03:04:22.894Z,95424
2022-10-22T03:05:32.636Z,95417
2022-10-22T03:06:41.273Z,95414
2022-10-22T03:07:50.976Z,95414
2022-10-22T03:09:00.722Z,95417
2022-10-22T03:10:09.415Z,95416
2022-10-22T03:11:18.082Z,95418
2022-10-22T03:12:25.784Z,95409
2022-10-22T03:13:34.489Z,95413
2022-10-22T03:14:43.213Z,95411
2022-10-22T03:15:52.951Z,95409
2022-10-22T03:17:02.640Z,95408
2022-10-22T03:18:11.335Z,95419
2022-10-22T03:19:20.051Z,95409
2022-10-22T03:20:29.781Z,95415
2022-10-22T03:21:37.466Z,95416
2022-10-22T03:22:47.188Z,95415
2022-10-22T03:23:56.882Z,95417
2022-10-22T03:25:03.688Z,95411
2022-10-22T03:26:10.371Z,95412
2022-10-22T03:27:20.052Z,95416
2022-10-22T03:28:28.744Z,95418
2022-10-22T03:29:38.361Z,95415
2022-10-22T03:30:47.011Z,95414
2022-10-22T03:31:55.695Z,95418
2022-10-22T03:33:04.533Z,95425
2022-10-22T03:34:14.334Z,95431
2022-10-22T03:35:22.021Z,95436
2022-10-22T03:36:31.731Z,95440
2022-10-22T03:37:39.723Z,95440
2022-10-22T03:38:48.147Z,95445
2022-10-22T03:39:56.848Z,95447
2022-10-22T03:41:04.499Z,95448
2022-10-22T03:42:14.195Z,95446
2022-10-22T03:43:23.895Z,95446
2022-10-22T03:44:32.670Z,95448
2022-10-22T03:45:41.268Z,95447
2022-10-22T03:46:49.952Z,95443
2022-10-22T03:47:59.633Z,95448
2022-10-22T03:49:08.314Z,95445
2022-10-22T03:50:17.036Z,95448
2022-10-22T03:51:26.843Z,95462
2022-10-22T03:52:36.553Z,95475
2022-10-22T03:53:46.124Z,95481
2022-10-22T03:54:54.843Z,95481
2022-10-22T03:56:03.550Z,95480
2022-10-22T03:57:12.245Z,95476
2022-10-22T03:58:20.974Z,95481
2022-10-22T03:59:28.685Z,95480
2022-10-22T04:00:38.446Z,95482
2022-10-22T04:01:48.122Z,95479
2022-10-22T04:02:56.890Z,95480
2022-10-22T04:04:06.587Z,95484
2022-10-22T04:05:15.246Z,95486
2022-10-22T04:06:23.978Z,95479
2022-10-22T04:07:33.697Z,95472
2022-10-22T04:08:43.451Z,95476
2022-10-22T04:09:53.146Z,95477
2022-10-22T04:11:02.858Z,95477
2022-10-22T04:12:12.558Z,95479
2022-10-22T04:13:20.218Z,95486
2022-10-22T04:14:27.960Z,95484
2022-10-22T04:15:35.805Z,95483
2022-10-22T04:16:44.326Z,95482
2022-10-22T04:17:54.003Z,95481
2022-10-22T04:19:03.767Z,95482
2022-10-22T04:20:13.428Z,95471
2022-10-22T04:21:22.236Z,95471
2022-10-22T04:22:30.953Z,95475
2022-10-22T04:23:37.619Z,95459
2022-10-22T04:24:46.348Z,95460
2022-10-22T04:25:55.017Z,95456
2022-10-22T04:27:03.668Z,95466
2022-10-22T04:28:12.361Z,95461
2022-10-22T04:29:20.062Z,95460
2022-10-22T04:30:28.882Z,95462
2022-10-22T04:31:37.569Z,95465
2022-10-22T04:32:46.249Z,95464
2022-10-22T04:33:53.960Z,95468
2022-10-22T04:35:03.688Z,95469
2022-10-22T04:36:11.469Z,95463
2022-10-22T04:37:19.185Z,95456
2022-10-22T04:38:27.879Z,95453
2022-10-22T04:39:36.564Z,95454
2022-10-22T04:40:46.339Z,95455
2022-10-22T04:41:56.099Z,95455
2022-10-22T04:43:03.775Z,95450
2022-10-22T04:44:16.010Z,95453
2022-10-22T04:45:23.191Z,95452
2022-10-22T04:46:32.882Z,95450
2022-10-22T04:47:42.965Z,95453
2022-10-22T04:48:51.447Z,95450
2022-10-22T04:50:01.115Z,95449
2022-10-22T04:51:08.783Z,95449
2022-10-22T04:52:17.448Z,95458
2022-10-22T04:53:26.152Z,95462
2022-10-22T04:54:35.952Z,95473
2022-10-22T04:55:43.686Z,95475
2022-10-22T04:56:53.364Z,95470
2022-10-22T04:58:03.069Z,95469
2022-10-22T04:59:10.843Z,95468
2022-10-22T05:00:19.529Z,95464
2022-10-22T05:01:29.316Z,95469
2022-10-22T05:02:38.006Z,95468
2022-10-22T05:03:46.694Z,95463
2022-10-22T05:04:56.471Z,95462
2022-10-22T05:06:06.140Z,95458
2022-10-22T05:07:13.779Z,95457
2022-10-22T05:08:22.482Z,95458
2022-10-22T05:09:31.166Z,95458
2022-10-22T05:10:40.866Z,95460
2022-10-22T05:11:49.541Z,95462
2022-10-22T05:12:58.261Z,95462
2022-10-22T05:14:05.908Z,95460
2022-10-22T05:15:14.602Z,95458
2022-10-22T05:16:23.273Z,95464
2022-10-22T05:17:38.273Z,95462
2022-10-22T05:18:47.712Z,95462
2022-10-22T05:19:57.398Z,95458
2022-10-22T05:21:05.111Z,95458
2022-10-22T05:22:13.820Z,95456
2022-10-22T05:23:22.508Z,95452
2022-10-22T05:24:31.169Z,95458
2022-10-22T05:25:40.849Z,95458
2022-10-22T05:26:49.525Z,95464
2022-10-22T05:28:00.239Z,95462
2022-10-22T05:29:08.887Z,95463
2022-10-22T05:30:17.594Z,95471
2022-10-22T05:31:26.284Z,95467
2022-10-22T05:32:34.937Z,95469
2022-10-22T05:33:43.621Z,95471
2022-10-22T05:34:53.290Z,95472
2022-10-22T05:36:00.977Z,95472
2022-10-22T05:37:10.696Z,95475
2022-10-22T05:38:20.370Z,95481
2022-10-22T05:39:28.179Z,95475
2022-10-22T05:40:36.855Z,95488
2022-10-22T05:41:45.583Z,95488
2022-10-22T05:42:54.353Z,95479
2022-10-22T05:44:03.028Z,95483
2022-10-22T05:45:11.756Z,95482
2022-10-22T05:46:22.942Z,95486
2022-10-22T05:47:31.142Z,95491
2022-10-22T05:48:38.819Z,95480
2022-10-22T05:49:47.503Z,95479
2022-10-22T05:50:57.249Z,95476
2022-10-22T05:52:05.929Z,95484
2022-10-22T05:53:15.654Z,95474
2022-10-22T05:54:25.339Z,95473
2022-10-22T05:55:35.121Z,95477
2022-10-22T05:56:44.825Z,95473
2022-10-22T05:57:52.494Z,95482
2022-10-22T06:00:11.594Z,95477
2022-10-22T06:01:19.542Z,95476
2022-10-22T06:02:29.310Z,95471
2022-10-22T06:03:37.965Z,95467
2022-10-22T06:04:47.667Z,95469
2022-10-22T06:05:56.398Z,95473
2022-10-22T06:07:05.079Z,95470
2022-10-22T06:08:16.791Z,95464
2022-10-22T06:09:24.523Z,95464
2022-10-22T06:10:33.152Z,95472
2022-10-22T06:11:42.890Z,95480
2022-10-22T06:12:50.616Z,95484
2022-10-22T06:13:59.338Z,95485
2022-10-22T06:15:09.026Z,95490
2022-10-22T06:16:16.688Z,95494
2022-10-22T06:17:27.359Z,95503
2022-10-22T06:18:37.054Z,95497
2022-10-22T06:19:46.761Z,95503
2022-10-22T06:20:56.417Z,95497
2022-10-22T06:22:04.097Z,95498
2022-10-22T06:23:12.782Z,95502
2022-10-22T06:24:22.514Z,95504
2022-10-22T06:25:30.192Z,95509
2022-10-22T06:26:38.841Z,95510
2022-10-22T06:27:47.596Z,95509
2022-10-22T06:28:56.295Z,95503
2022-10-22T06:30:05.994Z,95501
2022-10-22T06:31:13.673Z,95505
2022-10-22T06:32:23.449Z,95505
2022-10-22T06:33:33.183Z,95513
2022-10-22T06:34:40.848Z,95516
2022-10-22T06:35:49.529Z,95520
2022-10-22T06:36:58.226Z,95519
2022-10-22T06:38:06.916Z,95518
2022-10-22T06:39:16.643Z,95518
2022-10-22T06:40:25.333Z,95522
2022-10-22T06:41:35.047Z,95520
2022-10-22T06:42:44.845Z,95529
2022-10-22T06:43:53.521Z,95530
2022-10-22T06:45:03.195Z,95530
2022-10-22T06:46:13.730Z,95528
2022-10-22T06:47:23.493Z,95533
2022-10-22T06:48:33.226Z,95525
2022-10-22T06:49:41.890Z,95524
2022-10-22T06:50:51.570Z,95525
2022-10-22T06:52:01.250Z,95530
2022-10-22T06:53:08.979Z,95525
2022-10-22T06:54:17.635Z,95527
2022-10-22T06:55:27.304Z,95531
2022-10-22T06:56:35.966Z,95528
2022-10-22T06:57:45.672Z,95521
2022-10-22T06:58:54.320Z,95517
2022-10-22T07:00:03.097Z,95523
2022-10-22T07:01:12.752Z,95518
2022-10-22T07:02:21.374Z,95525
2022-10-22T07:03:30.045Z,95528
2022-10-22T07:04:38.707Z,95531
2022-10-22T07:05:48.397Z,95536
2022-10-22T07:06:58.081Z,95544
2022-10-22T07:08:06.744Z,95542
2022-10-22T07:09:15.570Z,95554
2022-10-22T07:10:27.133Z,95556
2022-10-22T07:11:34.762Z,95558
2022-10-22T07:12:44.451Z,95555
2022-10-22T07:13:53.153Z,95560
2022-10-22T07:15:01.794Z,95566
2022-10-22T07:16:10.467Z,95571
2022-10-22T07:17:19.176Z,95580
2022-10-22T07:18:28.850Z,95576
2022-10-22T07:19:36.580Z,95584
2022-10-22T07:20:46.351Z,95589
2022-10-22T07:21:56.107Z,95592
2022-10-22T07:23:03.828Z,95598
2022-10-22T07:24:12.528Z,95597
2022-10-22T07:25:21.204Z,95610
2022-10-22T07:26:31.093Z,95613
2022-10-22T07:27:40.829Z,95621
2022-10-22T07:28:49.300Z,95633
2022-10-22T07:29:59.015Z,95638
2022-10-22T07:31:08.672Z,95642
2022-10-22T07:32:18.034Z,95643
2022-10-22T07:33:26.002Z,95646
2022-10-22T07:34:34.698Z,95648
2022-10-22T07:35:44.355Z,95644
2022-10-22T07:36:54.082Z,95648
2022-10-22T07:38:03.810Z,95645
2022-10-22T07:39:12.495Z,95647
2022-10-22T07:40:22.244Z,95637
2022-10-22T07:41:30.937Z,95639
2022-10-22T07:42:39.647Z,95641
2022-10-22T07:43:49.338Z,95640
2022-10-22T07:44:59.063Z,95646
2022-10-22T07:46:08.851Z,95639
2022-10-22T07:47:18.568Z,95638
2022-10-22T07:48:27.249Z,95640
2022-10-22T07:49:37.034Z,95643
2022-10-22T07:50:45.720Z,95645
2022-10-22T07:51:55.555Z,95649
2022-10-22T07:53:04.252Z,95647
2022-10-22T07:54:13.961Z,95643
2022-10-22T07:55:23.639Z,95646
2022-10-22T07:56:32.341Z,95654
2022-10-22T07:57:42.077Z,95651
2022-10-22T07:58:51.839Z,95653
2022-10-22T08:00:00.472Z,95661
2022-10-22T08:01:10.277Z,95669
2022-10-22T08:02:19.872Z,95667
2022-10-22T08:03:28.583Z,95674
2022-10-22T08:04:38.335Z,95671
2022-10-22T08:05:48.046Z,95671
2022-10-22T08:06:56.770Z,95675
2022-10-22T08:08:06.532Z,95675
2022-10-22T08:09:16.268Z,95676
2022-10-22T08:10:25.004Z,95678
2022-10-22T08:11:33.713Z,95674
2022-10-22T08:12:42.602Z,95676
2022-10-22T08:13:52.100Z,95670
2022-10-22T08:15:00.822Z,95668
2022-10-22T08:16:09.526Z,95678
2022-10-22T08:17:19.237Z,95676
2022-10-22T08:18:27.887Z,95673
2022-10-22T08:19:36.594Z,95678
2022-10-22T08:20:45.364Z,95679
2022-10-22T08:21:54.021Z,95680
2022-10-22T08:23:03.724Z,95683
2022-10-22T08:24:12.399Z,95686
2022-10-22T08:25:21.071Z,95683
2022-10-22T08:26:30.858Z,95684
2022-10-22T08:27:38.851Z,95690
2022-10-22T08:28:48.349Z,95688
2022-10-22T08:29:58.028Z,95698
2022-10-22T08:31:06.752Z,95701
2022-10-22T08:32:16.538Z,95695
2022-10-22T08:33:27.217Z,95699
2022-10-22T08:34:35.861Z,95700
2022-10-22T08:35:45.576Z,95701
2022-10-22T08:36:54.253Z,95699
2022-10-22T08:38:04.062Z,95698
2022-10-22T08:39:12.738Z,95708
2022-10-22T08:40:21.471Z,95707
2022-10-22T08:41:31.160Z,95706
2022-10-22T08:42:39.130Z,95707
2022-10-22T08:43:47.760Z,95705
2022-10-22T08:44:57.629Z,95706
2022-10-22T08:46:05.297Z,95709
2022-10-22T08:47:16.350Z,95710
2022-10-22T08:48:24.650Z,95710
2022-10-22T08:49:36.011Z,95715
2022-10-22T08:50:45.237Z,95713
2022-10-22T08:51:53.502Z,95720
2022-10-22T08:53:02.638Z,95718
2022-10-22T08:54:12.361Z,95717
2022-10-22T08:55:20.198Z,95721
2022-10-22T08:56:28.953Z,95723
2022-10-22T08:57:38.641Z,95725
2022-10-22T08:58:47.353Z,95727
2022-10-22T08:59:57.068Z,95728
2022-10-22T09:01:04.839Z,95728
2022-10-22T09:02:13.454Z,95725
2022-10-22T09:03:23.168Z,95726
2022-10-22T09:04:30.876Z,95727
2022-10-22T09:05:40.632Z,95730
2022-10-22T09:06:52.077Z,95731
2022-10-22T09:07:59.295Z,95732
2022-10-22T09:09:09.226Z,95730
2022-10-22T09:10:18.881Z,95732
2022-10-22T09:11:28.542Z,95738
2022-10-22T09:12:37.241Z,95739
2022-10-22T09:13:46.947Z,95743
2022-10-22T09:14:56.670Z,95737
2022-10-22T09:16:05.376Z,95743
2022-10-22T09:17:14.075Z,95745
2022-10-22T09:18:22.800Z,95747
2022-10-22T09:19:31.523Z,95745
2022-10-22T09:20:41.211Z,95740
2022-10-22T09:21:49.937Z,95741
2022-10-22T09:22:58.630Z,95748
2022-10-22T09:24:08.424Z,95746
2022-10-22T09:25:17.087Z,95751
2022-10-22T09:26:26.784Z,95753
2022-10-22T09:27:35.493Z,95746
2022-10-22T09:28:44.176Z,95752
2022-10-22T09:29:53.910Z,95749
2022-10-22T09:31:01.598Z,95752
2022-10-22T09:32:10.328Z,95750
2022-10-22T09:33:21.276Z,95754
2022-10-22T09:34:29.776Z,95756
2022-10-22T09:35:38.511Z,95753
2022-10-22T09:36:47.213Z,95751
2022-10-22T09:37:56.911Z,95754
2022-10-22T09:39:06.659Z,95758
2022-10-22T09:40:14.287Z,95760
2022-10-22T09:41:23.991Z,95762
2022-10-22T09:42:33.722Z,95758
2022-10-22T09:43:42.538Z,95762
2022-10-22T09:44:51.242Z,95766
2022-10-22T09:45:59.947Z,95764
2022-10-22T09:47:09.694Z,95765
2022-10-22T09:48:19.508Z,95759
2022-10-22T09:49:27.199Z,95760
2022-10-22T09:50:36.917Z,95763
2022-10-22T09:51:46.636Z,95760
2022-10-22T09:52:56.540Z,95763
2022-10-22T09:54:06.275Z,95763
2022-10-22T09:55:16.019Z,95768
2022-10-22T09:56:25.709Z,95771
2022-10-22T09:57:35.382Z,95767
2022-10-22T09:58:45.056Z,95769
2022-10-22T09:59:54.745Z,95769
2022-10-22T10:01:04.484Z,95764
2022-10-22T10:02:19.862Z,95768
2022-10-22T10:03:22.896Z,95764
2022-10-22T10:04:31.573Z,95768
2022-10-22T10:05:40.228Z,95764
2022-10-22T10:06:49.946Z,95766
2022-10-22T10:07:58.626Z,95773
2022-10-22T10:09:08.362Z,95770
2022-10-22T10:10:18.120Z,95772
2022-10-22T10:11:29.042Z,95773
2022-10-22T10:12:35.614Z,95776
2022-10-22T10:13:44.200Z,95774
2022-10-22T10:14:52.906Z,95775
2022-10-22T10:16:01.653Z,95770
2022-10-22T10:17:11.327Z,95767
2022-10-22T10:18:20.039Z,95770
2022-10-22T10:19:29.732Z,95762
2022-10-22T10:20:38.461Z,95762
2022-10-22T10:21:47.197Z,95764
2022-10-22T10:22:55.939Z,95762
2022-10-22T10:24:05.647Z,95764
2022-10-22T10:25:15.385Z,95758
2022-10-22T10:26:25.084Z,95763
2022-10-22T10:27:33.761Z,95764
2022-10-22T10:28:43.480Z,95760
2022-10-22T10:29:52.178Z,95757
2022-10-22T10:31:01.878Z,95764
2022-10-22T10:32:10.562Z,95757
2022-10-22T10:33:21.356Z,95758
2022-10-22T10:34:31.019Z,95760
2022-10-22T10:35:39.694Z,95757
2022-10-22T10:36:48.406Z,95760
2022-10-22T10:39:07.859Z,95758
2022-10-22T10:40:17.541Z,95755
2022-10-22T10:41:26.292Z,95756
2022-10-22T10:42:35.062Z,95750
2022-10-22T10:43:44.731Z,95748
2022-10-22T10:44:53.424Z,95752
2022-10-22T10:46:03.152Z,95756
2022-10-22T10:47:12.878Z,95752
2022-10-22T10:48:22.624Z,95752
2022-10-22T10:49:31.371Z,95756
2022-10-22T10:50:40.152Z,95756
2022-10-22T10:51:48.900Z,95755
2022-10-22T10:52:58.953Z,95751
2022-10-22T10:54:07.528Z,95756
2022-10-22T10:55:16.252Z,95753
2022-10-22T10:56:26.210Z,95750
2022-10-22T10:57:36.848Z,95751
2022-10-22T10:58:46.600Z,95754
2022-10-22T10:59:56.288Z,95754
2022-10-22T11:01:04.002Z,95747
2022-10-22T11:02:13.723Z,95748
2022-10-22T11:03:23.424Z,95747
2022-10-22T11:04:33.147Z,95744
2022-10-22T11:05:42.892Z,95742
2022-10-22T11:06:50.580Z,95743
2022-10-22T11:07:59.595Z,95744
2022-10-22T11:09:08.037Z,95739
2022-10-22T11:10:17.655Z,95738
2022-10-22T11:11:27.383Z,95740
2022-10-22T11:12:36.088Z,95736
2022-10-22T11:13:45.777Z,95739
2022-10-22T11:14:54.480Z,95740
2022-10-22T11:16:03.135Z,95737
2022-10-22T11:17:13.835Z,95737
2022-10-22T11:18:22.563Z,95737
2022-10-22T11:19:50.076Z,95739
2022-10-22T11:20:42.950Z,95738
2022-10-22T11:21:52.672Z,95741
2022-10-22T11:23:18.610Z,95738
2022-10-22T11:24:13.164Z,95740
2022-10-22T11:25:21.864Z,95737
2022-10-22T11:26:31.568Z,95738
2022-10-22T11:27:40.568Z,95741
2022-10-22T11:28:50.012Z,95746
2022-10-22T11:29:59.708Z,95748
2022-10-22T11:31:08.408Z,95744
2022-10-22T11:32:18.141Z,95746
2022-10-22T11:33:26.867Z,95752
2022-10-22T11:34:35.576Z,95741
2022-10-22T11:35:45.278Z,95740
2022-10-22T11:36:54.030Z,95743
2022-10-22T11:38:02.722Z,95738
2022-10-22T11:39:12.440Z,95737
2022-10-22T11:40:21.121Z,95736
2022-10-22T11:41:30.787Z,95735
2022-10-22T11:42:38.478Z,95739
2022-10-22T11:43:48.187Z,95735
2022-10-22T11:44:57.937Z,95733
2022-10-22T11:46:05.630Z,95728
2022-10-22T11:47:14.358Z,95729
2022-10-22T11:48:24.155Z,95732
2022-10-22T11:49:33.831Z,95722
2022-10-22T11:50:43.518Z,95725
2022-10-22T11:51:52.197Z,95735
2022-10-22T11:53:00.931Z,95724
2022-10-22T11:54:10.642Z,95728
2022-10-22T11:55:19.318Z,95724
2022-10-22T11:56:27.999Z,95724
2022-10-22T11:57:36.740Z,95726
2022-10-22T11:58:47.685Z,95719
2022-10-22T11:59:57.358Z,95719
2022-10-22T12:01:07.096Z,95724
2022-10-22T12:02:15.746Z,95722
2022-10-22T12:03:25.489Z,95717
2022-10-22T12:04:34.184Z,95722
2022-10-22T12:05:41.970Z,95722
2022-10-22T12:06:51.714Z,95720
2022-10-22T12:08:01.406Z,95721
2022-10-22T12:09:12.144Z,95727
2022-10-22T12:10:19.818Z,95722
2022-10-22T12:11:28.568Z,95719
2022-10-22T12:12:38.557Z,95723
2022-10-22T12:13:47.016Z,95724
2022-10-22T12:14:55.738Z,95712
2022-10-22T12:16:05.475Z,95717
2022-10-22T12:17:15.239Z,95719
2022-10-22T12:18:24.921Z,95719
2022-10-22T12:19:33.707Z,95721
2022-10-22T12:20:42.407Z,95719
2022-10-22T12:21:52.134Z,95721
2022-10-22T12:22:59.792Z,95721
2022-10-22T12:24:09.529Z,95718
2022-10-22T12:25:18.290Z,95713
2022-10-22T12:26:27.072Z,95713
2022-10-22T12:27:36.676Z,95715
2022-10-22T12:28:44.408Z,95710
2022-10-22T12:29:53.154Z,95716
2022-10-22T12:31:02.940Z,95717
2022-10-22T12:32:11.620Z,95711
2022-10-22T12:33:21.380Z,95709
2022-10-22T12:34:31.075Z,95712
2022-10-22T12:35:39.742Z,95707
2022-10-22T12:36:49.423Z,95704
2022-10-22T12:37:59.095Z,95707
2022-10-22T12:39:07.837Z,95714
2022-10-22T12:40:17.512Z,95713
2022-10-22T12:41:25.248Z,95706
2022-10-22T12:42:34.960Z,95708
2022-10-22T12:43:44.705Z,95704
2022-10-22T12:44:53.404Z,95706
2022-10-22T12:46:03.117Z,95704
2022-10-22T12:47:12.772Z,95708
2022-10-22T12:48:22.503Z,95700
2022-10-22T12:49:32.261Z,95709
2022-10-22T12:50:40.915Z,95700
2022-10-22T12:51:49.657Z,95701
2022-10-22T12:52:58.396Z,95702
2022-10-22T12:54:07.106Z,95703
2022-10-22T12:55:16.806Z,95702
2022-10-22T12:56:26.539Z,95704
2022-10-22T12:57:37.000Z,95704
2022-10-22T12:58:46.797Z,95705
2022-10-22T12:59:54.549Z,95704
2022-10-22T13:01:04.352Z,95702
2022-10-22T13:02:12.958Z,95706
2022-10-22T13:03:21.886Z,95701
2022-10-22T13:04:31.677Z,95706
2022-10-22T13:05:41.369Z,95705
2022-10-22T13:06:50.064Z,95704
2022-10-22T13:07:58.739Z,95705
2022-10-22T13:09:07.582Z,95700
2022-10-22T13:10:17.252Z,95702
2022-10-22T13:11:26.979Z,95700
2022-10-22T13:12:35.716Z,95707
2022-10-22T13:13:45.554Z,95700
2022-10-22T13:14:55.309Z,95700
2022-10-22T13:16:05.025Z,95696
2022-10-22T13:17:14.701Z,95693
2022-10-22T13:18:23.383Z,95696
2022-10-22T13:19:33.103Z,95698
2022-10-22T13:20:41.856Z,95692
2022-10-22T13:21:52.563Z,95691
2022-10-22T13:23:02.295Z,95697
2022-10-22T13:24:11.065Z,95693
2022-10-22T13:25:20.786Z,95694
2022-10-22T13:26:30.534Z,95694
2022-10-22T13:27:39.455Z,95693
2022-10-22T13:28:48.939Z,95697
2022-10-22T13:29:56.610Z,95697
2022-10-22T13:31:06.433Z,95701
2022-10-22T13:32:15.186Z,95701
2022-10-22T13:33:24.892Z,95698
2022-10-22T13:34:34.610Z,95693
2022-10-22T13:35:43.341Z,95697
2022-10-22T13:36:51.039Z,95700
2022-10-22T13:38:00.776Z,95691
2022-10-22T13:39:09.426Z,95695
2022-10-22T13:40:18.158Z,95693
2022-10-22T13:41:26.920Z,95690
2022-10-22T13:42:35.588Z,95689
2022-10-22T13:43:45.315Z,95690
2022-10-22T13:44:53.079Z,95696
2022-10-22T13:46:01.861Z,95696
2022-10-22T13:47:11.556Z,95696
2022-10-22T13:48:19.285Z,95694
2022-10-22T13:49:27.981Z,95702
2022-10-22T13:50:37.687Z,95698
2022-10-22T13:51:46.414Z,95696
2022-10-22T13:52:56.131Z,95697
2022-10-22T13:54:04.883Z,95700
2022-10-22T13:55:13.606Z,95692
2022-10-22T13:56:23.357Z,95696
2022-10-22T13:57:32.140Z,95693
2022-10-22T13:58:40.859Z,95692
2022-10-22T13:59:49.545Z,95692
2022-10-22T14:00:58.449Z,95690
2022-10-22T14:02:08.131Z,95692
2022-10-22T14:03:15.840Z,95691
2022-10-22T14:04:25.533Z,95695
2022-10-22T14:05:36.223Z,95697
2022-10-22T14:06:44.046Z,95696
2022-10-22T14:07:53.731Z,95698
2022-10-22T14:09:03.670Z,95695
2022-10-22T14:10:12.407Z,95691
2022-10-22T14:11:22.057Z,95692
2022-10-22T14:12:31.786Z,95693
2022-10-22T14:13:40.477Z,95695
2022-10-22T14:14:50.223Z,95698
2022-10-22T14:16:00.936Z,95701
2022-10-22T14:17:09.647Z,95701
2022-10-22T14:18:18.410Z,95709
2022-10-22T14:19:27.144Z,95701
2022-10-22T14:20:36.839Z,95704
2022-10-22T14:21:44.515Z,95707
2022-10-22T14:22:53.251Z,95702
2022-10-22T14:24:03.121Z,95708
2022-10-22T14:25:13.840Z,95704
2022-10-22T14:26:22.566Z,95703
2022-10-22T14:27:32.284Z,95706
2022-10-22T14:28:46.262Z,95708
2022-10-22T14:29:53.207Z,95709
2022-10-22T14:31:02.399Z,95711
2022-10-22T14:32:11.089Z,95711
2022-10-22T14:33:23.138Z,95713
2022-10-22T14:34:32.550Z,95708
2022-10-22T14:35:41.344Z,95716
2022-10-22T14:36:51.077Z,95713
2022-10-22T14:38:00.845Z,95713
2022-10-22T14:39:10.591Z,95713
2022-10-22T14:40:19.277Z,95721
2022-10-22T14:41:30.009Z,95722
2022-10-22T14:42:39.937Z,95709
2022-10-22T14:43:49.472Z,95712
2022-10-22T14:44:59.167Z,95710
2022-10-22T14:46:07.877Z,95715
2022-10-22T14:47:16.584Z,95714
2022-10-22T14:48:26.355Z,95714
2022-10-22T14:49:35.121Z,95716
2022-10-22T14:50:43.813Z,95722
2022-10-22T14:51:53.516Z,95719
2022-10-22T14:53:02.293Z,95717
2022-10-22T14:54:12.047Z,95714
2022-10-22T14:55:21.743Z,95720
2022-10-22T14:56:30.509Z,95722
2022-10-22T14:57:40.385Z,95723
2022-10-22T14:58:48.973Z,95720